sensor_id;sensor_type;location;lat;lon;timestamp;temperature;humidity
44559;DHT22;30270;40.238;18.256;2022-09-09T00:00:46;25.70;99.90
44559;DHT22;30270;40.238;18.256;2022-09-09T00:03:18;25.80;99.90
44559;DHT22;30270;40.238;18.256;2022-09-09T00:05:58;25.80;99.90
44559;DHT22;30270;40.238;18.256;2022-09-09T00:08:57;25.80;99.90
44559;DHT22;30270;40.238;18.256;2022-09-09T00:11:43;25.80;99.90
44559;DHT22;30270;40.238;18.256;2022-09-09T00:17:14;25.70;99.90
44559;DHT22;30270;40.238;18.256;2022-09-09T00:19:56;25.70;99.90
44559;DHT22;30270;40.238;18.256;2022-09-09T00:22:29;25.70;99.90
44559;DHT22;30270;40.238;18.256;2022-09-09T00:25:15;25.70;99.90
44559;DHT22;30270;40.238;18.256;2022-09-09T00:27:49;25.70;99.90
44559;DHT22;30270;40.238;18.256;2022-09-09T00:32:54;25.60;99.90
44559;DHT22;30270;40.238;18.256;2022-09-09T00:37:56;25.60;99.90
44559;DHT22;30270;40.238;18.256;2022-09-09T00:40:37;25.60;99.90
44559;DHT22;30270;40.238;18.256;2022-09-09T00:51:15;25.50;99.90
44559;DHT22;30270;40.238;18.256;2022-09-09T00:57:05;25.50;99.90
44559;DHT22;30270;40.238;18.256;2022-09-09T01:17:25;25.40;99.90
44559;DHT22;30270;40.238;18.256;2022-09-09T01:26:22;25.30;99.90
44559;DHT22;30270;40.238;18.256;2022-09-09T01:28:53;25.30;99.90
44559;DHT22;30270;40.238;18.256;2022-09-09T01:31:37;25.30;99.90
44559;DHT22;30270;40.238;18.256;2022-09-09T01:34:13;25.30;99.90
44559;DHT22;30270;40.238;18.256;2022-09-09T01:39:27;25.30;99.90
44559;DHT22;30270;40.238;18.256;2022-09-09T01:42:10;25.30;99.90
44559;DHT22;30270;40.238;18.256;2022-09-09T01:44:40;25.30;99.90
44559;DHT22;30270;40.238;18.256;2022-09-09T01:47:08;25.30;99.90
44559;DHT22;30270;40.238;18.256;2022-09-09T01:49:50;25.30;99.90
44559;DHT22;30270;40.238;18.256;2022-09-09T01:52:22;25.30;99.90
44559;DHT22;30270;40.238;18.256;2022-09-09T01:54:50;25.30;99.90
44559;DHT22;30270;40.238;18.256;2022-09-09T01:57:29;25.30;99.90
44559;DHT22;30270;40.238;18.256;2022-09-09T02:00:09;25.30;99.90
44559;DHT22;30270;40.238;18.256;2022-09-09T02:08:10;25.30;99.90
44559;DHT22;30270;40.238;18.256;2022-09-09T02:13:40;25.30;99.90
44559;DHT22;30270;40.238;18.256;2022-09-09T02:18:48;25.20;99.90
44559;DHT22;30270;40.238;18.256;2022-09-09T02:21:29;25.20;99.90
44559;DHT22;30270;40.238;18.256;2022-09-09T02:23:59;25.20;99.90
44559;DHT22;30270;40.238;18.256;2022-09-09T02:26:32;25.30;99.90
44559;DHT22;30270;40.238;18.256;2022-09-09T02:29:15;25.30;99.90
44559;DHT22;30270;40.238;18.256;2022-09-09T02:31:46;25.20;99.90
44559;DHT22;30270;40.238;18.256;2022-09-09T02:34:20;25.20;99.90
44559;DHT22;30270;40.238;18.256;2022-09-09T02:36:52;25.20;99.90
44559;DHT22;30270;40.238;18.256;2022-09-09T02:39:21;25.20;99.90
44559;DHT22;30270;40.238;18.256;2022-09-09T02:41:51;25.20;99.90
44559;DHT22;30270;40.238;18.256;2022-09-09T02:44:28;25.20;99.90
44559;DHT22;30270;40.238;18.256;2022-09-09T02:58:07;25.20;99.90
44559;DHT22;30270;40.238;18.256;2022-09-09T03:00:37;25.20;99.90
44559;DHT22;30270;40.238;18.256;2022-09-09T03:03:05;25.20;99.90
44559;DHT22;30270;40.238;18.256;2022-09-09T03:05:34;25.20;99.90
44559;DHT22;30270;40.238;18.256;2022-09-09T03:08:04;25.10;99.90
44559;DHT22;30270;40.238;18.256;2022-09-09T03:10:33;25.10;99.90
44559;DHT22;30270;40.238;18.256;2022-09-09T03:13:03;25.20;99.90
44559;DHT22;30270;40.238;18.256;2022-09-09T03:15:37;25.10;99.90
44559;DHT22;30270;40.238;18.256;2022-09-09T03:18:07;25.10;99.90
44559;DHT22;30270;40.238;18.256;2022-09-09T03:20:35;25.20;99.90
44559;DHT22;30270;40.238;18.256;2022-09-09T03:23:03;25.20;99.90
44559;DHT22;30270;40.238;18.256;2022-09-09T03:25:31;25.20;99.90
44559;DHT22;30270;40.238;18.256;2022-09-09T03:28:00;25.20;99.90
44559;DHT22;30270;40.238;18.256;2022-09-09T03:30:28;25.20;99.90
44559;DHT22;30270;40.238;18.256;2022-09-09T03:32:56;25.20;99.90
44559;DHT22;30270;40.238;18.256;2022-09-09T03:35:29;25.30;99.90
44559;DHT22;30270;40.238;18.256;2022-09-09T03:37:57;25.30;99.90
44559;DHT22;30270;40.238;18.256;2022-09-09T03:40:25;25.30;99.90
44559;DHT22;30270;40.238;18.256;2022-09-09T03:42:53;25.30;99.90
44559;DHT22;30270;40.238;18.256;2022-09-09T03:45:21;25.30;99.90
44559;DHT22;30270;40.238;18.256;2022-09-09T03:47:48;25.30;99.90
44559;DHT22;30270;40.238;18.256;2022-09-09T03:50:17;25.30;99.90
44559;DHT22;30270;40.238;18.256;2022-09-09T03:52:47;25.30;99.90
44559;DHT22;30270;40.238;18.256;2022-09-09T03:55:20;25.40;99.90
44559;DHT22;30270;40.238;18.256;2022-09-09T03:57:48;25.40;99.90
44559;DHT22;30270;40.238;18.256;2022-09-09T04:00:16;25.40;99.90
44559;DHT22;30270;40.238;18.256;2022-09-09T04:02:45;25.40;99.90
44559;DHT22;30270;40.238;18.256;2022-09-09T04:05:15;25.40;99.90
44559;DHT22;30270;40.238;18.256;2022-09-09T04:07:45;25.40;99.90
44559;DHT22;30270;40.238;18.256;2022-09-09T04:10:13;25.40;99.90
44559;DHT22;30270;40.238;18.256;2022-09-09T04:12:40;25.40;99.90
44559;DHT22;30270;40.238;18.256;2022-09-09T04:15:08;25.40;99.90
44559;DHT22;30270;40.238;18.256;2022-09-09T04:17:38;25.30;99.90
44559;DHT22;30270;40.238;18.256;2022-09-09T04:20:06;25.40;99.90
44559;DHT22;30270;40.238;18.256;2022-09-09T04:22:38;25.40;99.90
44559;DHT22;30270;40.238;18.256;2022-09-09T04:25:07;25.30;99.90
44559;DHT22;30270;40.238;18.256;2022-09-09T04:27:35;25.30;99.90
44559;DHT22;30270;40.238;18.256;2022-09-09T04:30:02;25.30;99.90
44559;DHT22;30270;40.238;18.256;2022-09-09T04:32:33;25.30;99.90
44559;DHT22;30270;40.238;18.256;2022-09-09T04:35:00;25.30;99.90
44559;DHT22;30270;40.238;18.256;2022-09-09T04:37:28;25.30;99.90
44559;DHT22;30270;40.238;18.256;2022-09-09T04:39:56;25.30;99.90
44559;DHT22;30270;40.238;18.256;2022-09-09T04:42:23;25.40;99.90
44559;DHT22;30270;40.238;18.256;2022-09-09T04:44:51;25.30;99.90
44559;DHT22;30270;40.238;18.256;2022-09-09T04:47:18;25.40;99.90
44559;DHT22;30270;40.238;18.256;2022-09-09T04:49:47;25.40;99.90
44559;DHT22;30270;40.238;18.256;2022-09-09T04:52:14;25.40;99.90
44559;DHT22;30270;40.238;18.256;2022-09-09T04:54:44;25.40;99.90
44559;DHT22;30270;40.238;18.256;2022-09-09T04:57:12;25.40;99.90
44559;DHT22;30270;40.238;18.256;2022-09-09T04:59:42;25.50;99.90
44559;DHT22;30270;40.238;18.256;2022-09-09T05:02:12;25.50;99.90
44559;DHT22;30270;40.238;18.256;2022-09-09T05:04:39;25.50;99.90
44559;DHT22;30270;40.238;18.256;2022-09-09T05:07:07;25.50;99.90
44559;DHT22;30270;40.238;18.256;2022-09-09T05:09:35;25.60;99.90
44559;DHT22;30270;40.238;18.256;2022-09-09T05:12:03;25.50;99.90
44559;DHT22;30270;40.238;18.256;2022-09-09T05:14:34;25.60;99.90
44559;DHT22;30270;40.238;18.256;2022-09-09T05:17:05;25.60;99.90
44559;DHT22;30270;40.238;18.256;2022-09-09T05:19:35;25.60;99.90
44559;DHT22;30270;40.238;18.256;2022-09-09T05:22:02;25.60;99.90
44559;DHT22;30270;40.238;18.256;2022-09-09T05:24:38;25.60;99.90
44559;DHT22;30270;40.238;18.256;2022-09-09T05:27:06;25.60;99.90
44559;DHT22;30270;40.238;18.256;2022-09-09T05:29:34;25.70;99.90
44559;DHT22;30270;40.238;18.256;2022-09-09T05:32:04;25.70;99.90
44559;DHT22;30270;40.238;18.256;2022-09-09T05:34:34;25.70;99.90
44559;DHT22;30270;40.238;18.256;2022-09-09T05:37:02;25.70;99.90
44559;DHT22;30270;40.238;18.256;2022-09-09T05:39:30;25.70;99.90
44559;DHT22;30270;40.238;18.256;2022-09-09T05:41:57;25.70;99.90
44559;DHT22;30270;40.238;18.256;2022-09-09T05:44:25;25.80;99.90
44559;DHT22;30270;40.238;18.256;2022-09-09T05:46:54;25.80;99.90
44559;DHT22;30270;40.238;18.256;2022-09-09T05:49:22;25.80;99.90
44559;DHT22;30270;40.238;18.256;2022-09-09T05:51:50;25.80;99.90
44559;DHT22;30270;40.238;18.256;2022-09-09T05:54:19;25.80;99.90
44559;DHT22;30270;40.238;18.256;2022-09-09T05:56:50;25.80;99.90
44559;DHT22;30270;40.238;18.256;2022-09-09T05:59:20;25.80;99.90
44559;DHT22;30270;40.238;18.256;2022-09-09T06:01:50;25.90;99.90
44559;DHT22;30270;40.238;18.256;2022-09-09T06:04:23;25.90;99.90
44559;DHT22;30270;40.238;18.256;2022-09-09T06:06:51;26.00;99.90
44559;DHT22;30270;40.238;18.256;2022-09-09T06:09:22;26.00;99.90
44559;DHT22;30270;40.238;18.256;2022-09-09T06:11:50;26.00;99.90
44559;DHT22;30270;40.238;18.256;2022-09-09T06:14:19;26.00;99.90
44559;DHT22;30270;40.238;18.256;2022-09-09T06:16:49;26.00;99.90
44559;DHT22;30270;40.238;18.256;2022-09-09T06:19:21;26.10;99.90
44559;DHT22;30270;40.238;18.256;2022-09-09T06:21:48;26.10;99.90
44559;DHT22;30270;40.238;18.256;2022-09-09T06:24:18;26.10;99.90
44559;DHT22;30270;40.238;18.256;2022-09-09T06:26:48;26.20;99.90
44559;DHT22;30270;40.238;18.256;2022-09-09T06:29:20;26.20;99.90
44559;DHT22;30270;40.238;18.256;2022-09-09T06:31:50;26.20;99.90
44559;DHT22;30270;40.238;18.256;2022-09-09T06:34:21;26.20;99.90
44559;DHT22;30270;40.238;18.256;2022-09-09T06:36:52;26.20;99.90
44559;DHT22;30270;40.238;18.256;2022-09-09T06:39:21;26.20;99.90
44559;DHT22;30270;40.238;18.256;2022-09-09T06:41:49;26.20;99.90
44559;DHT22;30270;40.238;18.256;2022-09-09T06:44:38;26.30;99.90
44559;DHT22;30270;40.238;18.256;2022-09-09T06:47:11;26.50;99.90
44559;DHT22;30270;40.238;18.256;2022-09-09T06:49:41;26.70;99.90
44559;DHT22;30270;40.238;18.256;2022-09-09T06:52:12;26.80;99.90
44559;DHT22;30270;40.238;18.256;2022-09-09T06:54:40;26.80;99.90
44559;DHT22;30270;40.238;18.256;2022-09-09T06:57:07;26.70;99.90
44559;DHT22;30270;40.238;18.256;2022-09-09T06:59:47;26.80;99.90
44559;DHT22;30270;40.238;18.256;2022-09-09T07:02:15;26.80;99.90
44559;DHT22;30270;40.238;18.256;2022-09-09T07:04:43;26.80;99.90
44559;DHT22;30270;40.238;18.256;2022-09-09T07:07:11;26.80;99.90
44559;DHT22;30270;40.238;18.256;2022-09-09T07:09:40;26.80;99.90
44559;DHT22;30270;40.238;18.256;2022-09-09T07:12:09;26.90;99.90
44559;DHT22;30270;40.238;18.256;2022-09-09T07:14:41;26.90;99.90
44559;DHT22;30270;40.238;18.256;2022-09-09T07:17:09;26.90;99.90
44559;DHT22;30270;40.238;18.256;2022-09-09T07:19:39;26.90;99.90
44559;DHT22;30270;40.238;18.256;2022-09-09T07:22:07;26.90;99.90
44559;DHT22;30270;40.238;18.256;2022-09-09T07:24:36;26.90;99.90
44559;DHT22;30270;40.238;18.256;2022-09-09T07:27:05;27.00;99.90
44559;DHT22;30270;40.238;18.256;2022-09-09T07:29:34;27.10;99.90
44559;DHT22;30270;40.238;18.256;2022-09-09T07:32:03;27.30;99.90
44559;DHT22;30270;40.238;18.256;2022-09-09T07:34:35;27.30;99.90
44559;DHT22;30270;40.238;18.256;2022-09-09T07:37:03;27.40;99.90
44559;DHT22;30270;40.238;18.256;2022-09-09T07:39:32;27.50;99.90
44559;DHT22;30270;40.238;18.256;2022-09-09T07:42:01;27.40;99.90
44559;DHT22;30270;40.238;18.256;2022-09-09T07:44:29;27.40;99.90
44559;DHT22;30270;40.238;18.256;2022-09-09T07:47:04;27.40;99.90
44559;DHT22;30270;40.238;18.256;2022-09-09T07:49:36;27.50;99.90
44559;DHT22;30270;40.238;18.256;2022-09-09T07:52:06;27.50;99.90
44559;DHT22;30270;40.238;18.256;2022-09-09T07:54:41;27.70;99.90
44559;DHT22;30270;40.238;18.256;2022-09-09T07:57:10;27.90;99.90
44559;DHT22;30270;40.238;18.256;2022-09-09T07:59:43;28.10;99.90
44559;DHT22;30270;40.238;18.256;2022-09-09T08:02:16;28.30;99.90
44559;DHT22;30270;40.238;18.256;2022-09-09T08:04:44;28.40;99.90
44559;DHT22;30270;40.238;18.256;2022-09-09T08:07:19;28.70;99.90
44559;DHT22;30270;40.238;18.256;2022-09-09T08:09:57;28.90;99.90
44559;DHT22;30270;40.238;18.256;2022-09-09T08:12:40;28.90;99.90
44559;DHT22;30270;40.238;18.256;2022-09-09T08:15:19;29.00;99.90
44559;DHT22;30270;40.238;18.256;2022-09-09T08:17:47;29.10;99.90
44559;DHT22;30270;40.238;18.256;2022-09-09T08:20:16;29.20;99.90
44559;DHT22;30270;40.238;18.256;2022-09-09T08:22:49;29.20;99.90
44559;DHT22;30270;40.238;18.256;2022-09-09T08:25:22;29.20;99.90
44559;DHT22;30270;40.238;18.256;2022-09-09T08:27:53;29.30;99.90
44559;DHT22;30270;40.238;18.256;2022-09-09T08:30:21;29.30;99.90
44559;DHT22;30270;40.238;18.256;2022-09-09T08:32:49;29.10;99.90
44559;DHT22;30270;40.238;18.256;2022-09-09T08:35:19;28.90;99.90
44559;DHT22;30270;40.238;18.256;2022-09-09T08:37:48;28.80;99.90
44559;DHT22;30270;40.238;18.256;2022-09-09T08:40:28;28.80;99.90
44559;DHT22;30270;40.238;18.256;2022-09-09T08:42:59;29.10;99.90
44559;DHT22;30270;40.238;18.256;2022-09-09T08:45:54;29.20;99.90
44559;DHT22;30270;40.238;18.256;2022-09-09T08:50:59;29.20;99.90
44559;DHT22;30270;40.238;18.256;2022-09-09T08:53:42;29.10;99.90
44559;DHT22;30270;40.238;18.256;2022-09-09T08:56:18;29.20;99.90
44559;DHT22;30270;40.238;18.256;2022-09-09T08:58:53;29.40;99.90
44559;DHT22;30270;40.238;18.256;2022-09-09T09:01:41;29.50;99.90
44559;DHT22;30270;40.238;18.256;2022-09-09T09:07:39;29.50;99.90
44559;DHT22;30270;40.238;18.256;2022-09-09T09:10:33;29.60;99.90
44559;DHT22;30270;40.238;18.256;2022-09-09T09:13:32;29.80;99.90
44559;DHT22;30270;40.238;18.256;2022-09-09T09:16:38;30.00;99.90
44559;DHT22;30270;40.238;18.256;2022-09-09T09:19:11;29.80;99.90
44559;DHT22;30270;40.238;18.256;2022-09-09T09:22:21;29.70;99.90
44559;DHT22;30270;40.238;18.256;2022-09-09T09:27:43;29.60;99.90
44559;DHT22;30270;40.238;18.256;2022-09-09T09:30:18;29.60;99.90
44559;DHT22;30270;40.238;18.256;2022-09-09T09:35:32;30.10;99.90
44559;DHT22;30270;40.238;18.256;2022-09-09T09:38:21;30.30;99.90
44559;DHT22;30270;40.238;18.256;2022-09-09T09:41:11;30.40;99.90
44559;DHT22;30270;40.238;18.256;2022-09-09T09:43:40;30.40;99.90
44559;DHT22;30270;40.238;18.256;2022-09-09T09:46:21;30.20;99.90
44559;DHT22;30270;40.238;18.256;2022-09-09T09:49:05;30.20;99.90
44559;DHT22;30270;40.238;18.256;2022-09-09T09:51:37;30.20;99.90
44559;DHT22;30270;40.238;18.256;2022-09-09T09:56:51;29.90;99.90
44559;DHT22;30270;40.238;18.256;2022-09-09T09:59:22;29.90;99.90
44559;DHT22;30270;40.238;18.256;2022-09-09T10:02:23;30.00;99.90
44559;DHT22;30270;40.238;18.256;2022-09-09T10:07:31;30.00;99.90
44559;DHT22;30270;40.238;18.256;2022-09-09T10:10:01;30.00;99.90
44559;DHT22;30270;40.238;18.256;2022-09-09T10:12:48;29.80;99.90
44559;DHT22;30270;40.238;18.256;2022-09-09T10:35:51;30.50;99.90
44559;DHT22;30270;40.238;18.256;2022-09-09T10:43:46;30.60;99.90
44559;DHT22;30270;40.238;18.256;2022-09-09T10:55:02;30.70;99.90
44559;DHT22;30270;40.238;18.256;2022-09-09T10:57:48;30.80;99.90
44559;DHT22;30270;40.238;18.256;2022-09-09T11:00:25;30.40;99.90
44559;DHT22;30270;40.238;18.256;2022-09-09T11:03:01;30.60;99.90
44559;DHT22;30270;40.238;18.256;2022-09-09T11:06:00;30.70;99.90
44559;DHT22;30270;40.238;18.256;2022-09-09T11:08:30;30.60;99.90
44559;DHT22;30270;40.238;18.256;2022-09-09T11:11:27;30.60;99.90
44559;DHT22;30270;40.238;18.256;2022-09-09T11:17:20;31.00;99.90
44559;DHT22;30270;40.238;18.256;2022-09-09T11:19:45;31.10;99.90
44559;DHT22;30270;40.238;18.256;2022-09-09T11:22:38;30.90;99.90
44559;DHT22;30270;40.238;18.256;2022-09-09T11:44:40;30.80;99.90
44559;DHT22;30270;40.238;18.256;2022-09-09T11:47:30;30.80;99.90
44559;DHT22;30270;40.238;18.256;2022-09-09T11:50:31;30.70;99.90
44559;DHT22;30270;40.238;18.256;2022-09-09T11:53:20;30.50;99.90
44559;DHT22;30270;40.238;18.256;2022-09-09T11:56:25;30.50;99.90
44559;DHT22;30270;40.238;18.256;2022-09-09T12:01:43;30.80;99.90
44559;DHT22;30270;40.238;18.256;2022-09-09T12:04:42;30.80;99.90
44559;DHT22;30270;40.238;18.256;2022-09-09T12:07:26;30.80;99.90
44559;DHT22;30270;40.238;18.256;2022-09-09T12:12:47;30.60;99.90
44559;DHT22;30270;40.238;18.256;2022-09-09T12:15:25;30.60;99.90
44559;DHT22;30270;40.238;18.256;2022-09-09T12:17:57;30.50;99.90
44559;DHT22;30270;40.238;18.256;2022-09-09T12:20:36;30.50;99.90
44559;DHT22;30270;40.238;18.256;2022-09-09T12:25:40;30.50;99.90
44559;DHT22;30270;40.238;18.256;2022-09-09T12:36:59;30.30;99.90
44559;DHT22;30270;40.238;18.256;2022-09-09T12:39:37;30.20;99.90
44559;DHT22;30270;40.238;18.256;2022-09-09T12:42:16;30.20;99.90
44559;DHT22;30270;40.238;18.256;2022-09-09T12:44:58;30.10;99.90
44559;DHT22;30270;40.238;18.256;2022-09-09T12:47:40;30.10;99.90
44559;DHT22;30270;40.238;18.256;2022-09-09T12:50:25;30.20;99.90
44559;DHT22;30270;40.238;18.256;2022-09-09T12:52:59;30.20;99.90
44559;DHT22;30270;40.238;18.256;2022-09-09T12:55:31;30.20;99.90
44559;DHT22;30270;40.238;18.256;2022-09-09T12:58:01;30.20;99.90
44559;DHT22;30270;40.238;18.256;2022-09-09T13:00:34;30.30;99.90
44559;DHT22;30270;40.238;18.256;2022-09-09T13:03:14;30.30;99.90
44559;DHT22;30270;40.238;18.256;2022-09-09T13:05:44;30.20;99.90
44559;DHT22;30270;40.238;18.256;2022-09-09T13:08:16;30.20;99.90
44559;DHT22;30270;40.238;18.256;2022-09-09T13:11:00;30.20;99.90
44559;DHT22;30270;40.238;18.256;2022-09-09T13:13:41;30.20;99.90
44559;DHT22;30270;40.238;18.256;2022-09-09T13:16:39;30.30;99.90
44559;DHT22;30270;40.238;18.256;2022-09-09T13:19:16;30.30;99.90
44559;DHT22;30270;40.238;18.256;2022-09-09T13:21:44;30.40;99.90
44559;DHT22;30270;40.238;18.256;2022-09-09T13:24:32;30.30;99.90
44559;DHT22;30270;40.238;18.256;2022-09-09T13:27:03;30.30;99.90
44559;DHT22;30270;40.238;18.256;2022-09-09T13:29:32;30.40;99.90
44559;DHT22;30270;40.238;18.256;2022-09-09T13:32:16;30.30;99.90
44559;DHT22;30270;40.238;18.256;2022-09-09T13:35:23;30.30;99.90
44559;DHT22;30270;40.238;18.256;2022-09-09T13:37:51;30.10;99.90
44559;DHT22;30270;40.238;18.256;2022-09-09T13:40:23;30.20;99.90
44559;DHT22;30270;40.238;18.256;2022-09-09T13:42:55;30.10;99.90
44559;DHT22;30270;40.238;18.256;2022-09-09T13:45:25;30.00;99.90
44559;DHT22;30270;40.238;18.256;2022-09-09T13:47:55;30.00;99.90
44559;DHT22;30270;40.238;18.256;2022-09-09T13:50:27;30.00;99.90
44559;DHT22;30270;40.238;18.256;2022-09-09T13:52:59;30.10;99.90
44559;DHT22;30270;40.238;18.256;2022-09-09T13:55:28;30.10;99.90
44559;DHT22;30270;40.238;18.256;2022-09-09T13:58:02;30.00;99.90
44559;DHT22;30270;40.238;18.256;2022-09-09T14:00:32;29.90;99.90
44559;DHT22;30270;40.238;18.256;2022-09-09T14:03:00;29.80;99.90
44559;DHT22;30270;40.238;18.256;2022-09-09T14:05:31;29.80;99.90
44559;DHT22;30270;40.238;18.256;2022-09-09T14:08:00;29.80;99.90
44559;DHT22;30270;40.238;18.256;2022-09-09T14:10:27;29.90;99.90
44559;DHT22;30270;40.238;18.256;2022-09-09T14:12:55;29.90;99.90
44559;DHT22;30270;40.238;18.256;2022-09-09T14:15:23;29.90;99.90
44559;DHT22;30270;40.238;18.256;2022-09-09T14:17:51;29.90;99.90
44559;DHT22;30270;40.238;18.256;2022-09-09T14:20:21;29.80;99.90
44559;DHT22;30270;40.238;18.256;2022-09-09T14:22:48;29.80;99.90
44559;DHT22;30270;40.238;18.256;2022-09-09T14:25:16;29.70;99.90
44559;DHT22;30270;40.238;18.256;2022-09-09T14:27:44;29.60;99.90
44559;DHT22;30270;40.238;18.256;2022-09-09T14:30:13;29.60;99.90
44559;DHT22;30270;40.238;18.256;2022-09-09T14:32:41;29.50;99.90
44559;DHT22;30270;40.238;18.256;2022-09-09T14:35:08;29.50;99.90
44559;DHT22;30270;40.238;18.256;2022-09-09T14:37:36;29.50;99.90
44559;DHT22;30270;40.238;18.256;2022-09-09T14:40:04;29.50;99.90
44559;DHT22;30270;40.238;18.256;2022-09-09T14:42:32;29.50;99.90
44559;DHT22;30270;40.238;18.256;2022-09-09T14:45:00;29.60;99.90
44559;DHT22;30270;40.238;18.256;2022-09-09T14:47:28;29.60;99.90
44559;DHT22;30270;40.238;18.256;2022-09-09T14:49:57;29.70;99.90
44559;DHT22;30270;40.238;18.256;2022-09-09T14:52:25;29.50;99.90
44559;DHT22;30270;40.238;18.256;2022-09-09T14:54:53;29.60;99.90
44559;DHT22;30270;40.238;18.256;2022-09-09T14:57:21;29.50;99.90
44559;DHT22;30270;40.238;18.256;2022-09-09T14:59:48;29.50;99.90
44559;DHT22;30270;40.238;18.256;2022-09-09T15:02:17;29.50;99.90
44559;DHT22;30270;40.238;18.256;2022-09-09T15:04:45;29.50;99.90
44559;DHT22;30270;40.238;18.256;2022-09-09T15:07:13;29.50;99.90
44559;DHT22;30270;40.238;18.256;2022-09-09T15:09:40;29.50;99.90
44559;DHT22;30270;40.238;18.256;2022-09-09T15:12:08;29.40;99.90
44559;DHT22;30270;40.238;18.256;2022-09-09T15:14:36;29.40;99.90
44559;DHT22;30270;40.238;18.256;2022-09-09T15:17:04;29.40;99.90
44559;DHT22;30270;40.238;18.256;2022-09-09T15:19:31;29.40;99.90
44559;DHT22;30270;40.238;18.256;2022-09-09T15:21:59;29.30;99.90
44559;DHT22;30270;40.238;18.256;2022-09-09T15:24:27;29.30;99.90
44559;DHT22;30270;40.238;18.256;2022-09-09T15:26:55;29.30;99.90
44559;DHT22;30270;40.238;18.256;2022-09-09T15:29:24;29.30;99.90
44559;DHT22;30270;40.238;18.256;2022-09-09T15:31:54;29.20;99.90
44559;DHT22;30270;40.238;18.256;2022-09-09T15:34:22;29.20;99.90
44559;DHT22;30270;40.238;18.256;2022-09-09T15:36:50;29.20;99.90
44559;DHT22;30270;40.238;18.256;2022-09-09T15:39:18;29.20;99.90
44559;DHT22;30270;40.238;18.256;2022-09-09T15:41:46;29.20;99.90
44559;DHT22;30270;40.238;18.256;2022-09-09T15:44:15;29.10;99.90
44559;DHT22;30270;40.238;18.256;2022-09-09T15:46:50;29.10;99.90
44559;DHT22;30270;40.238;18.256;2022-09-09T15:49:19;29.10;99.90
44559;DHT22;30270;40.238;18.256;2022-09-09T15:51:52;29.00;99.90
44559;DHT22;30270;40.238;18.256;2022-09-09T15:54:22;29.00;99.90
44559;DHT22;30270;40.238;18.256;2022-09-09T15:56:58;28.90;99.90
44559;DHT22;30270;40.238;18.256;2022-09-09T15:59:28;28.90;99.90
44559;DHT22;30270;40.238;18.256;2022-09-09T16:01:57;28.90;99.90
44559;DHT22;30270;40.238;18.256;2022-09-09T16:04:28;28.90;99.90
44559;DHT22;30270;40.238;18.256;2022-09-09T16:07:01;28.80;99.90
44559;DHT22;30270;40.238;18.256;2022-09-09T16:09:29;28.80;99.90
44559;DHT22;30270;40.238;18.256;2022-09-09T16:12:03;28.80;99.90
44559;DHT22;30270;40.238;18.256;2022-09-09T16:14:33;28.70;99.90
44559;DHT22;30270;40.238;18.256;2022-09-09T16:17:04;28.70;99.90
44559;DHT22;30270;40.238;18.256;2022-09-09T16:19:32;28.60;99.90
44559;DHT22;30270;40.238;18.256;2022-09-09T16:22:02;28.60;99.90
44559;DHT22;30270;40.238;18.256;2022-09-09T16:24:30;28.60;99.90
44559;DHT22;30270;40.238;18.256;2022-09-09T16:26:58;28.60;99.90
44559;DHT22;30270;40.238;18.256;2022-09-09T16:29:25;28.50;99.90
44559;DHT22;30270;40.238;18.256;2022-09-09T16:31:54;28.50;99.90
44559;DHT22;30270;40.238;18.256;2022-09-09T16:34:23;28.50;99.90
44559;DHT22;30270;40.238;18.256;2022-09-09T16:36:52;28.40;99.90
44559;DHT22;30270;40.238;18.256;2022-09-09T16:39:20;28.40;99.90
44559;DHT22;30270;40.238;18.256;2022-09-09T16:41:49;28.30;99.90
44559;DHT22;30270;40.238;18.256;2022-09-09T16:44:17;28.20;99.90
44559;DHT22;30270;40.238;18.256;2022-09-09T16:46:47;28.10;99.90
44559;DHT22;30270;40.238;18.256;2022-09-09T16:49:25;28.10;99.90
44559;DHT22;30270;40.238;18.256;2022-09-09T16:51:57;28.00;99.90
44559;DHT22;30270;40.238;18.256;2022-09-09T16:54:27;27.90;99.90
44559;DHT22;30270;40.238;18.256;2022-09-09T16:56:56;27.90;99.90
44559;DHT22;30270;40.238;18.256;2022-09-09T16:59:24;27.80;99.90
44559;DHT22;30270;40.238;18.256;2022-09-09T17:01:53;27.70;99.90
44559;DHT22;30270;40.238;18.256;2022-09-09T17:04:25;27.60;99.90
44559;DHT22;30270;40.238;18.256;2022-09-09T17:06:55;27.60;99.90
44559;DHT22;30270;40.238;18.256;2022-09-09T17:09:25;27.50;99.90
44559;DHT22;30270;40.238;18.256;2022-09-09T17:11:56;27.50;99.90
44559;DHT22;30270;40.238;18.256;2022-09-09T17:14:23;27.30;99.90
44559;DHT22;30270;40.238;18.256;2022-09-09T17:16:51;27.30;99.90
44559;DHT22;30270;40.238;18.256;2022-09-09T17:19:18;27.30;99.90
44559;DHT22;30270;40.238;18.256;2022-09-09T17:21:46;27.20;99.90
44559;DHT22;30270;40.238;18.256;2022-09-09T17:24:32;27.10;99.90
44559;DHT22;30270;40.238;18.256;2022-09-09T17:27:00;27.10;99.90
44559;DHT22;30270;40.238;18.256;2022-09-09T17:29:28;27.10;99.90
44559;DHT22;30270;40.238;18.256;2022-09-09T17:31:56;27.00;99.90
44559;DHT22;30270;40.238;18.256;2022-09-09T17:34:24;26.90;99.90
44559;DHT22;30270;40.238;18.256;2022-09-09T17:36:52;26.90;99.90
44559;DHT22;30270;40.238;18.256;2022-09-09T17:39:20;26.90;99.90
44559;DHT22;30270;40.238;18.256;2022-09-09T17:41:48;26.90;99.90
44559;DHT22;30270;40.238;18.256;2022-09-09T17:44:16;26.80;99.90
44559;DHT22;30270;40.238;18.256;2022-09-09T17:46:43;26.90;99.90
44559;DHT22;30270;40.238;18.256;2022-09-09T17:49:14;26.90;99.90
44559;DHT22;30270;40.238;18.256;2022-09-09T17:51:44;26.90;99.90
44559;DHT22;30270;40.238;18.256;2022-09-09T17:54:17;26.90;99.90
44559;DHT22;30270;40.238;18.256;2022-09-09T17:56:46;26.90;99.90
44559;DHT22;30270;40.238;18.256;2022-09-09T17:59:15;26.80;99.90
44559;DHT22;30270;40.238;18.256;2022-09-09T18:01:46;26.80;99.90
44559;DHT22;30270;40.238;18.256;2022-09-09T18:04:15;26.80;99.90
44559;DHT22;30270;40.238;18.256;2022-09-09T18:06:47;26.80;99.90
44559;DHT22;30270;40.238;18.256;2022-09-09T18:09:21;26.70;99.90
44559;DHT22;30270;40.238;18.256;2022-09-09T18:11:52;26.70;99.90
44559;DHT22;30270;40.238;18.256;2022-09-09T18:14:28;26.70;99.90
44559;DHT22;30270;40.238;18.256;2022-09-09T18:16:58;26.70;99.90
44559;DHT22;30270;40.238;18.256;2022-09-09T18:19:27;26.70;99.90
44559;DHT22;30270;40.238;18.256;2022-09-09T18:21:58;26.70;99.90
44559;DHT22;30270;40.238;18.256;2022-09-09T18:24:26;26.60;99.90
44559;DHT22;30270;40.238;18.256;2022-09-09T18:26:54;26.60;99.90